NORTHROP GRUMMAN CORP /DE/

Pages

NORTHROP GRUMMAN CORP /DE/

$NOC

Search Table
Pages

Trade Date Insider Title Buy or Sell Quantity Security Type Price Proceeds Transaction Conviction Position Quantity Position Value Positon Conviction SEC Link Nature of Ownership
2020-08-07David T PerryCVP Chief Global Bus OffSell5,091Common Stock$326.83$1,663,891.53  0.31     [ Average ]9,508$3,107,368.91  0.57     [Very Low]Form 4-
2020-03-31Marianne Catherine Brown-Buy107Common Stock$302.55-$32,372.85  -5,494$1,662,209.70  0.33     [Very Low]Form 4-
2020-03-31Karl J Krapek-Buy108Common Stock$302.55-$32,675.40  -27,864$8,430,253.20  1.67     [Low]Form 4-
2020-03-31Donald E Felsinger-Buy136Common Stock$302.55-$41,146.80  -36,751$11,119,015.05  2.20     [Low]Form 4-
2020-05-20Marianne Catherine Brown-Buy499Common Stock$320.40-$159,879.60  0.03     [ Very Low ]5,993$1,920,157.20  0.36     [Very Low]Form 4-
2020-05-20Donald E Felsinger-Buy499Common Stock$320.40-$159,879.60  0.03     [ Very Low ]37,250$11,934,900.00  2.23     [Low]Form 4-
2020-05-20Ann M Fudge-Buy499Common Stock$320.40-$159,879.60  0.03     [ Very Low ]3,492$1,118,836.80  0.21     [Very Low]Form 4-
2020-05-20Bruce S Gordon-Buy499Common Stock$320.40-$159,879.60  0.03     [ Very Low ]18,457$5,913,622.80  1.11     [Very Low]Form 4-
2020-05-20William H Hernandez-Buy499Common Stock$320.40-$159,879.60  0.03     [ Very Low ]6,538$2,094,775.20  0.39     [Very Low]Form 4-
2020-05-20Madeleine Kleiner-Buy499Common Stock$320.40-$159,879.60  0.03     [ Very Low ]17,435$5,586,174.00  1.05     [Very Low]Form 4-
2020-05-20Karl J Krapek-Buy499Common Stock$320.40-$159,879.60  0.03     [ Very Low ]28,363$9,087,505.20  1.70     [Low]Form 4-
2020-05-20Gary Roughead-Buy499Common Stock$320.40-$159,879.60  0.03     [ Very Low ]8,845$2,833,938.00  0.53     [Very Low]Form 4-
2020-05-20Thomas M Schoewe-Buy499Common Stock$320.40-$159,879.60  0.03     [ Very Low ]13,244$4,243,377.60  0.79     [Very Low]Form 4-
2020-05-20James S Turley-Buy499Common Stock$320.40-$159,879.60  0.03     [ Very Low ]3,948$1,264,939.20  0.24     [Very Low]Form 4-
2020-05-20Welsh Mark A Iii-Buy499Common Stock$320.40-$159,879.60  0.03     [ Very Low ]2,470$791,388.00  0.15     [Very Low]Form 4-
2020-06-01Shawn N PurvisCVP, Pres, Enterprise SvcsSell38Common Stock$330.67$12,691.11  -5,068$1,675,729.75  -Form 4By Spouse
2020-06-10David P Abney-Buy441Common Stock$341.25-$150,491.25  -441$150,491.25  -Form 4-
2020-06-30Karl J Krapek-Buy106Common Stock$307.44-$32,588.64  -28,565$8,782,023.60  1.71     [Low]Form 4-
2020-06-30Donald E Felsinger-Buy134Common Stock$307.44-$41,196.96  -37,548$11,543,757.12  2.25     [Low]Form 4-
2020-06-30Marianne Catherine Brown-Buy109Common Stock$307.44-$33,510.96  -6,129$1,884,299.76  0.37     [Very Low]Form 4-
2020-09-30Marianne Catherine Brown-Buy111Common Stock$315.49-$35,019.39  -6,266$1,976,860.34  0.38     [Very Low]Form 4-
2020-09-30Donald E Felsinger-Buy130Common Stock$315.49-$41,013.70  -37,837$11,937,195.13  2.27     [Low]Form 4-
2020-09-30Karl J Krapek-Buy103Common Stock$315.49-$32,495.47  -28,761$9,073,807.89  1.73     [Low]Form 4-
2020-12-31Marianne Catherine Brown-Buy115Common Stock$304.72-$35,042.80  -6,411$1,953,559.92  0.38     [Very Low]Form 4-
2020-12-31Donald E Felsinger-Buy135Common Stock$304.72-$41,137.20  -38,154$11,626,286.88  2.29     [Low]Form 4-
2020-12-31Karl J Krapek-Buy107Common Stock$304.72-$32,605.04  -28,974$8,828,957.28  1.74     [Low]Form 4-
2021-02-02Karl J Krapek-Sell3,329Common Stock$0.00$0.00  -25,645$0.00  1.54     [Low]Form 4-
2021-02-04Mary D PetryszynCVP, Pres, Defense SystemsSell200Common Stock$302.93$60,586.00  -7,307$2,213,424.69  0.44     [Very Low]Form 4-
2021-02-04Mary D PetryszynCVP, Pres, Defense SystemsSell768Common Stock$302.93$232,650.24  0.05     [ Very Low ]6,539$1,980,774.45  0.39     [Very Low]Form 4-
2021-02-16Michael A HardestyCorp VP, Controller & CAOBuy2,080Common Stock$0.00$0.00  -6,476$0.00  0.39     [Very Low]Form 4-
2021-02-16Michael A HardestyCorp VP, Controller & CAOBuy632Common Stock$0.00$0.00  -7,108$0.00  0.43     [Very Low]Form 4-
2021-02-16Michael A HardestyCorp VP, Controller & CAOSell191Common Stock$0.00$0.00  -6,917$0.00  0.41     [Very Low]Form 4-
2021-02-16Michael A HardestyCorp VP, Controller & CAOSell638Common Stock$0.00$0.00  -6,279$0.00  0.38     [Very Low]Form 4-
2021-02-16Michael A HardestyCorp VP, Controller & CAOSell1,016Common Stock$296.87$301,619.92  0.06     [ Very Low ]5,263$1,562,411.97  0.32     [Very Low]Form 4-
2021-02-16Ann M AddisonCorp VP & Chief HR OfficerBuy2,747Common Stock$0.00$0.00  -5,495$0.00  0.33     [Very Low]Form 4-
2021-02-16Ann M AddisonCorp VP & Chief HR OfficerSell835Common Stock$0.00$0.00  -4,660$0.00  0.28     [Very Low]Form 4-
2021-02-16Mark A CaylorCVP & Pres, Mission SystemsBuy7,309Common Stock$0.00$0.00  -21,724$0.00  1.30     [Low]Form 4-
2021-02-16Mark A CaylorCVP & Pres, Mission SystemsBuy3,161Common Stock$0.00$0.00  -24,885$0.00  1.49     [Low]Form 4-
2021-02-16Mark A CaylorCVP & Pres, Mission SystemsSell1,532Common Stock$0.00$0.00  -23,353$0.00  1.40     [Low]Form 4-
2021-02-16Mark A CaylorCVP & Pres, Mission SystemsSell3,015Common Stock$0.00$0.00  -20,338$0.00  1.22     [Very Low]Form 4-
2021-02-16Sheila C. ChestonCorp. VP & General CounselBuy5,430Common Stock$0.00$0.00  -35,276$0.00  2.12     [Low]Form 4-
2021-02-16Sheila C. ChestonCorp. VP & General CounselBuy2,348Common Stock$0.00$0.00  -37,624$0.00  2.26     [Low]Form 4-
2021-02-16Sheila C. ChestonCorp. VP & General CounselSell1,197Common Stock$0.00$0.00  -36,427$0.00  2.18     [Low]Form 4-
2021-02-16Sheila C. ChestonCorp. VP & General CounselSell2,109Common Stock$0.00$0.00  -34,318$0.00  2.06     [Low]Form 4-
2021-02-16Thomas H JonesCVP & Pres Aeronautics SystemsBuy1,189Common Stock$0.00$0.00  -3,696$0.00  0.22     [Very Low]Form 4-
2021-02-16Thomas H JonesCVP & Pres Aeronautics SystemsBuy361Common Stock$0.00$0.00  -4,057$0.00  0.24     [Very Low]Form 4-
2021-02-16Thomas H JonesCVP & Pres Aeronautics SystemsSell126Common Stock$0.00$0.00  -3,931$0.00  0.24     [Very Low]Form 4-
2021-02-16Thomas H JonesCVP & Pres Aeronautics SystemsSell418Common Stock$0.00$0.00  -3,513$0.00  0.21     [Very Low]Form 4-
2021-02-16Lesley A KalanCVP, Chief Strategy & Dev OfcBuy3,341Common Stock$0.00$0.00  -14,111$0.00  0.85     [Very Low]Form 4-
2021-02-16Lesley A KalanCVP, Chief Strategy & Dev OfcBuy1,445Common Stock$0.00$0.00  -15,556$0.00  0.93     [Very Low]Form 4-
2021-02-16Lesley A KalanCVP, Chief Strategy & Dev OfcSell652Common Stock$0.00$0.00  -14,904$0.00  0.89     [Very Low]Form 4-
2021-02-16Lesley A KalanCVP, Chief Strategy & Dev OfcSell1,013Common Stock$0.00$0.00  -13,891$0.00  0.83     [Very Low]Form 4-
2021-02-16Blake E LarsonCVP & Pres, Space SystemsBuy6,974Common Stock$0.00$0.00  -13,963$0.00  0.84     [Very Low]Form 4-
2021-02-16Blake E LarsonCVP & Pres, Space SystemsSell2,700Common Stock$0.00$0.00  -11,263$0.00  0.68     [Very Low]Form 4-
2021-02-16David T PerryCVP Chief Global Bus OffBuy3,759Common Stock$0.00$0.00  -13,267$0.00  0.80     [Very Low]Form 4-
2021-02-16David T PerryCVP Chief Global Bus OffBuy1,626Common Stock$0.00$0.00  -14,893$0.00  0.89     [Very Low]Form 4-
2021-02-16David T PerryCVP Chief Global Bus OffSell738Common Stock$0.00$0.00  -14,155$0.00  0.85     [Very Low]Form 4-
2021-02-16David T PerryCVP Chief Global Bus OffSell1,189Common Stock$0.00$0.00  -12,966$0.00  0.78     [Very Low]Form 4-
2021-02-16Shawn N PurvisCVP, Pres, Enterprise SvcsBuy3,759Common Stock$0.00$0.00  -8,294$0.00  0.50     [Very Low]Form 4-
2021-02-16Shawn N PurvisCVP, Pres, Enterprise SvcsBuy1,626Common Stock$0.00$0.00  -9,920$0.00  0.60     [Very Low]Form 4-
2021-02-16Shawn N PurvisCVP, Pres, Enterprise SvcsSell734Common Stock$0.00$0.00  -9,186$0.00  0.55     [Very Low]Form 4-
2021-02-16Shawn N PurvisCVP, Pres, Enterprise SvcsSell1,189Common Stock$0.00$0.00  -7,997$0.00  0.48     [Very Low]Form 4-
2021-02-03Shawn N PurvisCVP, Pres, Enterprise SvcsSell5,203Common Stock$300.74$1,564,617.89  0.31     [ Average ]0$0.00  -Form 4By Spouse
2021-02-16Mary D PetryszynCVP, Pres, Defense SystemsBuy1,323Common Stock$0.00$0.00  -7,861$0.00  0.47     [Very Low]Form 4-
2021-02-16Mary D PetryszynCVP, Pres, Defense SystemsBuy402Common Stock$0.00$0.00  -8,263$0.00  0.50     [Very Low]Form 4-
2021-02-16Mary D PetryszynCVP, Pres, Defense SystemsSell122Common Stock$0.00$0.00  -8,141$0.00  0.49     [Very Low]Form 4-
2021-02-16Mary D PetryszynCVP, Pres, Defense SystemsSell402Common Stock$0.00$0.00  -7,739$0.00  0.46     [Very Low]Form 4-
2021-02-16Lucy C RyanCorp VP, CommunicationsBuy997Common Stock$0.00$0.00  -1,552$0.00  0.09     [Very Low]Form 4-
2021-02-16Lucy C RyanCorp VP, CommunicationsSell314Common Stock$0.00$0.00  -1,238$0.00  0.07     [Very Low]Form 4-
2021-02-16Kathy J WardenChairman, CEO and PresidentBuy24,108Common Stock$0.00$0.00  -126,836$0.00  7.61     [Average]Form 4-
2021-02-16Kathy J WardenChairman, CEO and PresidentBuy4,516Common Stock$0.00$0.00  -131,352$0.00  7.88     [Average]Form 4-
2021-02-16Kathy J WardenChairman, CEO and PresidentSell2,037Common Stock$0.00$0.00  -129,315$0.00  7.76     [Average]Form 4-
2021-02-16Kathy J WardenChairman, CEO and PresidentSell10,359Common Stock$0.00$0.00  -118,956$0.00  7.14     [Average]Form 4-
2021-02-16Janis G PamiljansCVP, Pres, Aeronautics SystemsBuy7,309Common Stock$0.00$0.00  -14,782$0.00  0.89     [Very Low]Form 4-
2021-02-16Janis G PamiljansCVP, Pres, Aeronautics SystemsBuy3,161Common Stock$0.00$0.00  -17,943$0.00  1.08     [Very Low]Form 4-
2021-02-16Janis G PamiljansCVP, Pres, Aeronautics SystemsSell1,559Common Stock$0.00$0.00  -16,384$0.00  0.98     [Very Low]Form 4-
2021-02-16Janis G PamiljansCVP, Pres, Aeronautics SystemsSell3,117Common Stock$0.00$0.00  -13,267$0.00  0.80     [Very Low]Form 4-
2021-02-18Michael A HardestyCorp VP, Controller & CAOSell940Common Stock$295.80$278,052.00  0.06     [ Very Low ]4,323$1,278,728.61  0.26     [Very Low]Form 4-
2021-02-18Janis G PamiljansCorporate Vice PresidentSell801Common Stock$295.80$236,935.80  0.05     [ Very Low ]12,466$3,687,516.75  0.75     [Very Low]Form 4-
2021-02-19Janis G PamiljansCorporate Vice PresidentSell2,096Common Stock$298.44$625,530.24  0.13     [ Low ]10,370$3,094,897.41  0.62     [Very Low]Form 4-
2021-02-22Janis G PamiljansCorporate Vice PresidentSell2,417Common Stock$295.10$713,256.70  0.14     [ Low ]7,953$2,347,004.08  0.48     [Very Low]Form 4-
2021-02-22Michael A HardestyCorp VP, Controller & CAOSell280Common Stock$295.10$82,628.00  0.02     [ Very Low ]4,043$1,193,074.54  0.24     [Very Low]Form 4-
2021-02-26David T PerryCVP Chief Global Bus OffSell5,552Common Stock$299.72$1,664,045.44  0.33     [ Average ]7,414$2,222,004.19  0.44     [Very Low]Form 4-